createdAt,value
2022-11-08T00:03:08.680Z,100151.34
2022-11-08T00:07:31.260Z,100155.75
2022-11-08T00:11:52.361Z,100157.91
2022-11-08T00:15:55.644Z,100145.91
2022-11-08T00:19:59.438Z,100166.94
2022-11-08T00:24:04.509Z,100157.22
2022-11-08T00:28:07.815Z,100159.84
2022-11-08T00:32:13.508Z,100158.31
2022-11-08T00:36:17.011Z,100154.34
2022-11-08T00:40:21.694Z,100157.81
2022-11-08T00:44:25.017Z,100151.00
2022-11-08T00:48:28.297Z,100157.41
2022-11-08T00:52:31.647Z,100147.56
2022-11-08T00:56:36.467Z,100145.22
2022-11-08T01:00:39.784Z,100141.13
2022-11-08T01:04:43.308Z,100138.63
2022-11-08T01:08:46.696Z,100138.78
2022-11-08T01:12:51.412Z,100150.28
2022-11-08T01:16:54.732Z,100155.41
2022-11-08T01:20:58.002Z,100143.72
2022-11-08T01:25:01.387Z,100142.06
2022-11-08T01:29:06.184Z,100143.94
2022-11-08T01:33:09.845Z,100148.56
2022-11-08T01:37:13.252Z,100150.09
2022-11-08T01:41:18.248Z,100149.63
2022-11-08T01:45:54.857Z,100145.00
2022-11-08T01:50:02.885Z,100138.69
2022-11-08T01:54:12.066Z,100138.81
2022-11-08T01:58:18.562Z,100133.03
2022-11-08T02:02:22.745Z,100128.78
2022-11-08T02:06:27.857Z,100118.06
2022-11-08T02:10:35.766Z,100124.34
2022-11-08T02:14:39.463Z,100121.56
2022-11-08T02:18:44.194Z,100111.97
2022-11-08T02:22:55.639Z,100104.34
2022-11-08T02:27:00.766Z,100090.88
2022-11-08T02:31:04.147Z,100093.00
2022-11-08T02:35:11.127Z,100090.25
2022-11-08T02:39:14.432Z,100068.19
2022-11-08T02:43:19.789Z,100058.75
2022-11-08T02:47:24.229Z,100064.53
2022-11-08T02:51:27.599Z,100046.22
2022-11-08T02:55:31.489Z,100039.91
2022-11-08T02:59:36.215Z,100030.75
2022-11-08T03:03:39.508Z,100030.03
2022-11-08T03:07:42.863Z,100018.59
2022-11-08T03:11:46.178Z,100012.00
2022-11-08T03:15:50.824Z,99997.44
2022-11-08T03:19:54.549Z,99996.91
2022-11-08T03:23:57.861Z,99997.88
2022-11-08T03:28:04.325Z,100000.34
2022-11-08T03:32:09.324Z,99992.88
2022-11-08T03:36:12.615Z,99987.59
2022-11-08T03:40:16.006Z,99987.03
2022-11-08T03:44:19.291Z,99982.72
2022-11-08T03:48:24.672Z,99989.31
2022-11-08T03:52:27.977Z,99991.78
2022-11-08T03:56:31.272Z,99996.03
2022-11-08T04:00:34.641Z,99988.31
2022-11-08T04:04:39.450Z,99991.94
2022-11-08T04:08:42.766Z,99987.66
2022-11-08T04:13:03.841Z,99986.06
2022-11-08T04:17:07.141Z,99950.00
2022-11-08T04:21:19.322Z,99954.56
2022-11-08T04:25:22.744Z,99947.03
2022-11-08T04:29:26.128Z,99951.28
2022-11-08T04:33:30.077Z,99927.66
2022-11-08T04:37:34.855Z,99908.66
2022-11-08T04:41:38.245Z,99914.28
2022-11-08T04:45:42.025Z,99903.66
2022-11-08T04:49:45.636Z,99893.47
2022-11-08T04:53:51.018Z,99885.81
2022-11-08T04:57:58.774Z,99871.88
2022-11-08T05:02:02.307Z,99854.56
2022-11-08T05:06:08.153Z,99844.47
2022-11-08T05:10:13.276Z,99843.00
2022-11-08T05:14:16.793Z,99845.28
2022-11-08T05:18:20.535Z,99838.91
2022-11-08T05:22:42.060Z,99836.31
2022-11-08T05:26:49.399Z,99836.53
2022-11-08T05:30:56.580Z,99835.09
2022-11-08T05:34:59.965Z,99817.00
2022-11-08T05:39:03.715Z,99810.47
2022-11-08T05:43:08.840Z,99807.25
2022-11-08T05:47:12.309Z,99788.72
2022-11-08T05:51:17.977Z,99781.28
2022-11-08T05:55:21.414Z,99788.44
2022-11-08T05:59:26.458Z,99781.16
2022-11-08T06:03:30.601Z,99774.16
2022-11-08T06:07:34.368Z,99782.69
2022-11-08T06:11:38.380Z,99776.75
2022-11-08T06:15:43.666Z,99775.53
2022-11-08T06:19:47.222Z,99779.91
2022-11-08T06:23:54.000Z,99792.41
2022-11-08T06:27:57.407Z,99784.97
2022-11-08T06:32:02.192Z,99786.97
2022-11-08T06:36:05.980Z,99792.22
2022-11-08T06:40:11.208Z,99791.81
2022-11-08T06:44:14.630Z,99796.06
2022-11-08T06:48:19.424Z,99800.47
2022-11-08T06:52:22.711Z,99793.94
2022-11-08T06:56:26.150Z,99798.97
2022-11-08T07:00:30.168Z,99794.09
2022-11-08T07:04:35.012Z,99783.75
2022-11-08T07:08:38.357Z,99775.84
2022-11-08T07:12:41.819Z,99770.97
2022-11-08T07:16:45.156Z,99773.84
2022-11-08T07:20:50.262Z,99766.19
2022-11-08T07:24:53.679Z,99759.44
2022-11-08T07:28:57.050Z,99764.78
2022-11-08T07:33:00.436Z,99759.34
2022-11-08T07:37:05.294Z,99746.97
2022-11-08T07:41:10.587Z,99739.19
2022-11-08T07:45:14.135Z,99741.13
2022-11-08T07:49:17.532Z,99729.56
2022-11-08T07:53:28.098Z,99728.22
2022-11-08T07:58:02.383Z,99734.13
2022-11-08T08:02:06.107Z,99733.19
2022-11-08T08:06:24.392Z,99732.72
2022-11-08T08:10:38.590Z,99747.47
2022-11-08T08:14:46.177Z,99741.50
2022-11-08T08:19:10.501Z,99748.56
2022-11-08T08:23:21.212Z,99742.00
2022-11-08T08:27:48.273Z,99749.50
2022-11-08T08:31:52.700Z,99754.84
2022-11-08T08:35:56.500Z,99746.03
2022-11-08T08:40:01.575Z,99749.75
2022-11-08T08:44:09.042Z,99754.75
2022-11-08T08:48:18.883Z,99753.06
2022-11-08T08:52:37.484Z,99753.78
2022-11-08T08:56:40.832Z,99768.09
2022-11-08T09:05:17.665Z,99762.81
2022-11-08T09:09:52.881Z,99758.50
2022-11-08T09:13:56.343Z,99759.88
2022-11-08T09:18:01.609Z,99760.34
2022-11-08T09:22:08.153Z,99747.50
2022-11-08T09:26:12.501Z,99737.34
2022-11-08T09:30:16.032Z,99732.56
2022-11-08T09:34:21.849Z,99709.03
2022-11-08T09:38:25.430Z,99718.88
2022-11-08T09:42:52.664Z,99709.38
2022-11-08T09:46:58.537Z,99718.63
2022-11-08T09:51:08.272Z,99717.53
2022-11-08T09:55:20.876Z,99719.47
2022-11-08T09:59:37.474Z,99716.63
2022-11-08T10:03:45.517Z,99697.34
2022-11-08T10:07:58.992Z,99683.81
2022-11-08T10:12:15.465Z,99693.84
2022-11-08T10:16:29.319Z,99682.03
2022-11-08T10:20:43.986Z,99677.72
2022-11-08T10:24:59.137Z,99669.22
2022-11-08T10:29:08.779Z,99667.63
2022-11-08T10:33:18.119Z,99656.78
2022-11-08T10:37:22.651Z,99647.06
2022-11-08T10:41:35.115Z,99643.81
2022-11-08T10:45:38.994Z,99646.41
2022-11-08T10:49:44.672Z,99668.56
2022-11-08T10:53:48.807Z,99664.16
2022-11-08T10:57:53.851Z,99653.63
2022-11-08T11:01:57.420Z,99656.69
2022-11-08T11:06:02.328Z,99650.56
2022-11-08T11:10:25.240Z,99658.84
2022-11-08T11:14:30.007Z,99663.25
2022-11-08T11:18:35.474Z,99654.94
2022-11-08T11:22:39.070Z,99658.28
2022-11-08T11:26:46.812Z,99656.34
2022-11-08T11:31:01.420Z,99664.06
2022-11-08T11:35:06.773Z,99670.72
2022-11-08T11:39:17.005Z,99667.13
2022-11-08T11:43:27.620Z,99669.91
2022-11-08T11:47:38.402Z,99696.50
2022-11-08T11:51:41.832Z,99690.72
2022-11-08T11:56:13.742Z,99681.28
2022-11-08T12:00:18.453Z,99681.84
2022-11-08T12:04:51.271Z,99674.34
2022-11-08T12:09:06.635Z,99671.31
2022-11-08T12:13:19.992Z,99665.22
2022-11-08T12:17:52.996Z,99642.00
2022-11-08T12:22:04.015Z,99622.09
2022-11-08T12:26:16.716Z,99611.84
2022-11-08T12:30:25.112Z,99622.06
2022-11-08T12:34:36.587Z,99582.75
2022-11-08T12:38:56.840Z,99597.13
2022-11-08T12:43:08.505Z,99609.28
2022-11-08T12:47:21.602Z,99612.91
2022-11-08T12:51:31.065Z,99610.97
2022-11-08T12:55:38.162Z,99613.22
2022-11-08T12:59:45.004Z,99596.38
2022-11-08T13:04:15.690Z,99604.94
2022-11-08T13:08:25.733Z,99596.09
2022-11-08T13:12:38.329Z,99596.38
2022-11-08T13:16:45.124Z,99593.31
2022-11-08T13:20:49.977Z,99603.84
2022-11-08T13:24:53.414Z,99606.06
2022-11-08T13:29:15.504Z,99608.00
2022-11-08T13:33:29.171Z,99600.00
2022-11-08T13:37:54.862Z,99597.50
2022-11-08T13:42:04.222Z,99586.44
2022-11-08T13:46:44.593Z,99591.72
2022-11-08T13:50:52.089Z,99595.03
2022-11-08T13:54:55.575Z,99585.34
2022-11-08T13:58:59.055Z,99587.56
2022-11-08T14:03:02.673Z,99593.63
2022-11-08T14:07:12.818Z,99600.00
2022-11-08T14:11:34.887Z,99597.81
2022-11-08T14:15:44.562Z,99593.63
2022-11-08T14:19:49.208Z,99598.88
2022-11-08T14:23:54.626Z,99600.25
2022-11-08T14:27:59.179Z,99590.88
2022-11-08T14:32:05.339Z,99591.72
2022-11-08T14:36:14.843Z,99594.47
2022-11-08T14:40:22.684Z,99595.59
2022-11-08T14:44:27.295Z,99598.06
2022-11-08T14:48:32.210Z,99595.59
2022-11-08T14:52:35.594Z,99603.88
2022-11-08T14:56:40.708Z,99596.41
2022-11-08T15:00:46.862Z,99598.06
2022-11-08T15:04:50.884Z,99591.16
2022-11-08T15:08:56.826Z,99586.44
2022-11-08T15:13:02.351Z,99585.63
2022-11-08T15:17:05.718Z,99581.22
2022-11-08T15:21:23.906Z,99570.97
2022-11-08T15:25:30.873Z,99564.06
2022-11-08T15:29:51.294Z,99568.50
2022-11-08T15:33:55.493Z,99565.75
2022-11-08T15:38:02.583Z,99547.50
2022-11-08T15:42:14.227Z,99551.91
2022-11-08T15:46:38.287Z,99561.56
2022-11-08T15:50:41.942Z,99559.09
2022-11-08T15:54:45.384Z,99543.06
2022-11-08T15:58:49.125Z,99554.38
2022-11-08T16:02:54.671Z,99546.38
2022-11-08T16:06:58.553Z,99554.69
2022-11-08T16:11:02.468Z,99553.03
2022-11-08T16:15:07.620Z,99537.56
2022-11-08T16:19:19.139Z,99548.06
2022-11-08T16:23:22.733Z,99537.53
2022-11-08T16:27:26.375Z,99545.84
2022-11-08T16:31:29.956Z,99551.06
2022-11-08T16:35:35.100Z,99558.00
2022-11-08T16:39:38.500Z,99547.50
2022-11-08T16:43:42.509Z,99556.91
2022-11-08T16:47:48.938Z,99545.28
2022-11-08T16:51:53.699Z,99546.41
2022-11-08T16:55:58.036Z,99566.28
2022-11-08T17:00:01.549Z,99566.84
2022-11-08T17:04:05.472Z,99560.75
2022-11-08T17:08:10.459Z,99566.53
2022-11-08T17:12:14.101Z,99563.22
2022-11-08T17:16:18.829Z,99574.56
2022-11-08T17:20:23.676Z,99567.94
2022-11-08T17:24:32.016Z,99587.28
2022-11-08T17:28:35.871Z,99579.81
2022-11-08T17:32:39.643Z,99585.06
2022-11-08T17:36:45.252Z,99573.47
2022-11-08T17:40:50.362Z,99578.72
2022-11-08T17:44:56.233Z,99595.56
2022-11-08T17:48:59.695Z,99599.41
2022-11-08T17:53:03.426Z,99594.72
2022-11-08T17:57:08.607Z,99598.84
2022-11-08T18:01:12.385Z,99599.38
2022-11-08T18:05:17.267Z,99596.69
2022-11-08T18:09:21.216Z,99582.84
2022-11-08T18:13:28.713Z,99576.22
2022-11-08T18:17:32.548Z,99579.00
2022-11-08T18:21:36.381Z,99585.88
2022-11-08T18:25:40.886Z,99594.72
2022-11-08T18:29:46.134Z,99597.50
2022-11-08T18:33:50.693Z,99589.75
2022-11-08T18:37:55.639Z,99581.72
2022-11-08T18:41:59.251Z,99580.06
2022-11-08T18:46:05.318Z,99579.81
2022-11-08T18:50:09.676Z,99577.88
2022-11-08T18:54:13.436Z,99585.03
2022-11-08T18:58:17.050Z,99590.78
2022-11-08T19:02:23.434Z,99591.03
2022-11-08T19:06:27.242Z,99610.38
2022-11-08T19:10:30.891Z,99598.28
2022-11-08T19:14:35.399Z,99596.06
2022-11-08T19:18:41.266Z,99600.19
2022-11-08T19:22:44.999Z,99609.53
2022-11-08T19:26:48.667Z,99614.78
2022-11-08T19:30:54.550Z,99598.75
2022-11-08T19:34:59.837Z,99610.94
2022-11-08T19:39:03.797Z,99611.47
2022-11-08T19:43:07.834Z,99613.66
2022-11-08T19:47:11.503Z,99614.16
2022-11-08T19:51:18.430Z,99608.09
2022-11-08T19:55:22.197Z,99624.31
2022-11-08T19:59:26.872Z,99630.16
2022-11-08T20:03:30.652Z,99635.09
2022-11-08T20:07:35.503Z,99653.34
2022-11-08T20:11:41.330Z,99644.53
2022-11-08T20:15:45.103Z,99641.78
2022-11-08T20:19:50.677Z,99651.19
2022-11-08T20:23:55.680Z,99644.56
2022-11-08T20:27:59.453Z,99646.75
2022-11-08T20:32:03.753Z,99643.97
2022-11-08T20:36:09.561Z,99645.84
2022-11-08T20:40:14.936Z,99644.47
2022-11-08T20:44:20.208Z,99635.03
2022-11-08T20:48:23.793Z,99641.06
2022-11-08T20:52:27.859Z,99638.34
2022-11-08T20:56:32.996Z,99641.91
2022-11-08T21:00:59.150Z,99641.91
2022-11-08T21:05:02.013Z,99642.75
2022-11-08T21:09:32.570Z,99659.25
2022-11-08T21:13:34.779Z,99649.53
2022-11-08T21:17:38.173Z,99653.66
2022-11-08T21:21:46.189Z,99654.22
2022-11-08T21:25:52.209Z,99663.34
2022-11-08T21:29:57.023Z,99651.16
2022-11-08T21:34:00.858Z,99661.88
2022-11-08T21:38:04.710Z,99661.41
2022-11-08T21:42:08.180Z,99666.69
2022-11-08T21:46:20.705Z,99665.84
2022-11-08T21:50:24.375Z,99671.34
2022-11-08T21:54:27.733Z,99677.41
2022-11-08T21:58:31.226Z,99666.34
2022-11-08T22:02:36.151Z,99672.94
2022-11-08T22:06:42.583Z,99672.69
2022-11-08T22:10:49.851Z,99672.09
2022-11-08T22:14:53.305Z,99663.78
2022-11-08T22:19:04.666Z,99656.91
2022-11-08T22:23:09.152Z,99653.56
2022-11-08T22:27:12.565Z,99662.06
2022-11-08T22:31:16.257Z,99656.53
2022-11-08T22:35:21.150Z,99650.81
2022-11-08T22:39:24.836Z,99653.50
2022-11-08T22:43:28.222Z,99651.06
2022-11-08T22:47:31.601Z,99662.50
2022-11-08T22:51:36.383Z,99670.25
2022-11-08T22:55:39.760Z,99678.88
2022-11-08T22:59:43.135Z,99686.31
2022-11-08T23:03:47.712Z,99685.53
2022-11-08T23:07:52.411Z,99692.16
2022-11-08T23:12:13.071Z,99680.56
2022-11-08T23:16:37.225Z,99683.84
2022-11-08T23:20:57.879Z,99680.03
2022-11-08T23:25:02.803Z,99683.88
2022-11-08T23:29:24.098Z,99689.91
2022-11-08T23:33:27.649Z,99697.63
2022-11-08T23:37:31.069Z,99697.66
2022-11-08T23:42:07.865Z,99680.03
2022-11-08T23:46:13.285Z,99684.41
2022-11-08T23:50:16.742Z,99679.97
2022-11-08T23:54:20.333Z,99685.38
2022-11-08T23:58:26.539Z,99688.56
